Time;durP1;ratioP1;P1;durP2;ratioP2;P2;SDS_P1;SDS_P2;PMS_P1;PMS_P2;Temp;Humidity;BMP_temperature;BMP_pressure;BME280_temperature;BME280_humidity;BME280_pressure;Samples;Min_cycle;Max_cycle;Signal;HPM_P1;HPM_P2
2021/11/27 00:00:09;;;;;;;22.00;12.23;;;;;;;-0.61;100.00;93694.47;5018369;28;20484;-73
2021/11/27 00:02:39;;;;;;;21.85;12.10;;;;;;;-0.67;100.00;93689.09;5019884;28;21100;-73
2021/11/27 00:05:05;;;;;;;20.67;12.50;;;;;;;-0.68;100.00;93688.31;5021024;28;20021;-73
2021/11/27 00:07:32;;;;;;;20.50;11.23;;;;;;;-0.67;100.00;93689.09;5019599;28;20452;-74
2021/11/27 00:09:59;;;;;;;18.97;11.67;;;;;;;-0.72;100.00;93690.38;5019326;28;20463;-74
2021/11/27 00:12:25;;;;;;;19.70;11.53;;;;;;;-0.69;100.00;93685.88;5022437;28;20554;-73
2021/11/27 00:14:51;;;;;;;21.30;12.20;;;;;;;-0.74;100.00;93678.59;5009647;28;20473;-74
2021/11/27 00:17:17;;;;;;;20.83;11.53;;;;;;;-0.82;100.00;93684.53;5024182;28;20032;-73
2021/11/27 00:19:43;;;;;;;22.73;12.57;;;;;;;-0.86;100.00;93675.47;5025226;28;21008;-73
2021/11/27 00:22:09;;;;;;;16.90;10.63;;;;;;;-0.90;100.00;93671.59;5032929;28;20062;-73
2021/11/27 00:24:35;;;;;;;17.87;10.53;;;;;;;-0.92;100.00;93675.28;5024003;28;20486;-74
2021/11/27 00:27:01;;;;;;;17.10;10.23;;;;;;;-0.88;100.00;93674.81;5027356;28;20514;-73
2021/11/27 00:29:27;;;;;;;19.20;11.57;;;;;;;-0.91;100.00;93674.31;5004112;28;20069;-73
2021/11/27 00:31:52;;;;;;;17.33;9.57;;;;;;;-0.88;100.00;93666.25;5007412;28;20121;-73
2021/11/27 00:34:18;;;;;;;18.57;10.47;;;;;;;-0.88;100.00;93667.06;5025833;28;20460;-73
2021/11/27 00:36:44;;;;;;;20.43;11.33;;;;;;;-0.88;100.00;93667.06;5024412;28;20030;-73
2021/11/27 00:39:11;;;;;;;17.57;9.73;;;;;;;-0.93;100.00;93671.91;5028621;28;20136;-74
2021/11/27 00:41:37;;;;;;;17.27;10.03;;;;;;;-0.94;100.00;93672.84;5025621;28;20510;-74
2021/11/27 00:44:04;;;;;;;17.33;10.60;;;;;;;-0.90;100.00;93658.69;5027804;28;20567;-73
2021/11/27 00:46:30;;;;;;;18.57;10.97;;;;;;;-0.86;100.00;93649.69;5028162;28;20479;-73
2021/11/27 00:48:55;;;;;;;15.43;9.87;;;;;;;-0.80;100.00;93646.50;5015185;28;20476;-73
2021/11/27 00:51:24;;;;;;;16.87;10.90;;;;;;;-0.81;100.00;93644.03;5019523;28;20461;-73
2021/11/27 00:53:50;;;;;;;16.63;9.70;;;;;;;-0.79;100.00;93637.78;5023568;28;20475;-73
2021/11/27 00:56:17;;;;;;;14.57;9.60;;;;;;;-0.82;100.00;93635.50;5033411;28;20960;-73
2021/11/27 00:58:44;;;;;;;18.20;10.33;;;;;;;-0.81;100.00;93629.38;5033964;28;20560;-73
2021/11/27 01:01:17;;;;;;;15.67;9.57;;;;;;;-0.81;100.00;93620.81;5030683;28;20490;-73
2021/11/27 01:03:44;;;;;;;16.97;9.87;;;;;;;-0.84;100.00;93624.53;5007809;28;20456;-73
2021/11/27 01:06:13;;;;;;;17.93;10.93;;;;;;;-0.84;100.00;93621.97;5002150;28;20452;-73
2021/11/27 01:08:40;;;;;;;18.47;10.83;;;;;;;-0.85;100.00;93612.59;5027215;28;20478;-73
2021/11/27 01:11:13;;;;;;;19.90;11.10;;;;;;;-1.03;100.00;93615.25;5039957;28;20525;-73
2021/11/27 01:13:42;;;;;;;19.83;11.73;;;;;;;-1.09;100.00;93610.69;5026063;28;20829;-73
2021/11/27 01:16:08;;;;;;;20.17;12.00;;;;;;;-1.07;100.00;93610.56;5018723;28;20502;-74
2021/11/27 01:18:35;;;;;;;18.47;11.83;;;;;;;-1.14;100.00;93605.22;5006719;28;21204;-73
2021/11/27 01:21:06;;;;;;;20.47;12.23;;;;;;;-1.19;100.00;93608.22;5036289;28;20037;-73
2021/11/27 01:23:32;;;;;;;18.80;11.23;;;;;;;-1.21;100.00;93610.16;5013420;28;20464;-73
2021/11/27 01:25:58;;;;;;;17.87;10.70;;;;;;;-1.25;100.00;93602.88;5042096;28;20452;-73
2021/11/27 01:28:24;;;;;;;17.93;11.17;;;;;;;-1.26;100.00;93609.78;5012897;28;20460;-73
2021/11/27 01:30:54;;;;;;;19.97;11.67;;;;;;;-1.22;100.00;93607.72;5013624;28;20553;-73
2021/11/27 01:33:20;;;;;;;22.43;12.63;;;;;;;-1.25;100.00;93608.03;5009526;28;20479;-73
2021/11/27 01:35:47;;;;;;;18.53;10.97;;;;;;;-1.27;100.00;93603.03;5026086;28;20971;-73
2021/11/27 01:38:13;;;;;;;22.00;12.17;;;;;;;-1.25;100.00;93602.88;5013598;28;20564;-73
2021/11/27 01:40:40;;;;;;;21.10;13.17;;;;;;;-1.33;100.00;93601.06;5013010;28;20468;-72
2021/11/27 01:43:07;;;;;;;19.20;10.77;;;;;;;-1.28;100.00;93603.97;5028038;28;20017;-73
2021/11/27 01:45:34;;;;;;;19.77;11.03;;;;;;;-1.27;100.00;93589.34;5025800;28;20499;-73
2021/11/27 01:48:07;;;;;;;18.90;10.67;;;;;;;-1.26;100.00;93596.91;5041540;28;20451;-73
2021/11/27 01:50:38;;;;;;;14.27;7.72;;;;;;;-1.27;100.00;93584.97;5031280;28;21021;-73
2021/11/27 01:53:05;;;;;;;21.57;11.23;;;;;;;-1.32;100.00;93594.94;5022173;28;20049;-73
2021/11/27 01:55:31;;;;;;;18.53;11.10;;;;;;;-1.32;100.00;93592.34;5024970;28;20448;-73
2021/11/27 01:57:57;;;;;;;17.37;10.73;;;;;;;-1.35;100.00;93587.50;5028509;28;20485;-73
2021/11/27 02:00:32;;;;;;;18.60;10.90;;;;;;;-1.35;100.00;93587.50;5027900;28;20471;-73
2021/11/27 02:02:58;;;;;;;16.37;9.20;;;;;;;-1.33;100.00;93582.19;5010888;28;20484;-73
2021/11/27 02:05:40;;;;;;;17.37;10.37;;;;;;;-1.28;100.00;93573.03;5009210;28;20467;-73
2021/11/27 02:08:06;;;;;;;18.20;11.43;;;;;;;-1.31;100.00;93568.22;5012878;28;20464;-73
2021/11/27 02:10:34;;;;;;;16.10;9.17;;;;;;;-1.25;100.00;93561.59;5031186;28;20476;-73
2021/11/27 02:13:01;;;;;;;13.63;8.63;;;;;;;-1.28;100.00;93554.19;5019152;28;20563;-73
2021/11/27 02:15:27;;;;;;;15.37;8.63;;;;;;;-1.23;100.00;93557.94;5034183;28;21028;-73
2021/11/27 02:17:53;;;;;;;14.60;9.07;;;;;;;-1.25;100.00;93559.84;5028390;28;20991;-74
2021/11/27 02:20:22;;;;;;;14.33;8.60;;;;;;;-1.14;100.00;93555.38;5016487;28;20829;-73
2021/11/27 02:22:48;;;;;;;15.23;8.37;;;;;;;-1.16;100.00;93552.97;5024788;28;20540;-73
2021/11/27 02:25:17;;;;;;;15.20;8.40;;;;;;;-1.17;100.00;93558.25;5018275;28;20571;-73
2021/11/27 02:27:46;;;;;;;13.87;8.07;;;;;;;-1.10;100.00;93559.28;5027601;28;20044;-73
2021/11/27 02:30:13;;;;;;;14.23;9.07;;;;;;;-1.06;100.00;93553.66;5019962;28;20499;-73
2021/11/27 02:32:39;;;;;;;15.00;8.63;;;;;;;-1.07;100.00;93553.81;5025452;28;20548;-73
2021/11/27 02:35:06;;;;;;;15.37;8.73;;;;;;;-1.05;100.00;93547.53;5020498;28;21268;-73
2021/11/27 02:37:32;;;;;;;12.67;8.53;;;;;;;-1.04;100.00;93546.56;5025551;28;20783;-73
2021/11/27 02:39:58;;;;;;;15.23;9.23;;;;;;;-0.99;100.00;93553.84;5005169;28;20503;-73
2021/11/27 02:42:24;;;;;;;15.30;9.70;;;;;;;-0.98;100.00;93548.50;5006900;28;20444;-73
2021/11/27 02:44:51;;;;;;;17.10;9.83;;;;;;;-0.97;100.00;93539.84;5001076;28;20041;-73
2021/11/27 02:47:18;;;;;;;14.10;9.53;;;;;;;-0.93;100.00;93535.16;5037429;28;20459;-73
2021/11/27 02:49:44;;;;;;;15.57;9.07;;;;;;;-0.93;100.00;93537.75;5004468;28;20476;-73
2021/11/27 02:52:10;;;;;;;15.30;9.13;;;;;;;-0.90;100.00;93528.91;5021753;28;20475;-74
2021/11/27 02:54:36;;;;;;;16.77;10.63;;;;;;;-0.88;100.00;93526.94;5016950;28;20025;-73
2021/11/27 02:57:02;;;;;;;13.13;9.10;;;;;;;-0.91;100.00;93527.25;5035511;28;20029;-73
2021/11/27 02:59:29;;;;;;;13.37;8.23;;;;;;;-0.89;100.00;93528.72;5020751;28;20025;-73
2021/11/27 03:01:59;;;;;;;14.63;9.00;;;;;;;-0.87;100.00;93531.13;5009244;28;21166;-73
2021/11/27 03:04:30;;;;;;;14.50;9.43;;;;;;;-0.87;100.00;93534.56;5014912;28;20472;-73
2021/11/27 03:06:56;;;;;;;15.67;9.57;;;;;;;-0.87;100.00;93526.81;5021510;28;20468;-73
2021/11/27 03:09:22;;;;;;;12.97;7.97;;;;;;;-0.81;100.00;93523.56;5007472;28;21064;-73
2021/11/27 03:11:51;;;;;;;13.07;8.17;;;;;;;-0.77;100.00;93529.22;5006173;28;20508;-73
2021/11/27 03:14:20;;;;;;;14.43;8.30;;;;;;;-0.73;100.00;93539.09;5018299;28;20079;-74
2021/11/27 03:16:47;;;;;;;14.10;8.40;;;;;;;-0.67;100.00;93532.50;5023496;28;20471;-73
2021/11/27 03:19:13;;;;;;;12.97;8.03;;;;;;;-0.61;100.00;93533.63;5033796;28;20451;-74
2021/11/27 03:21:39;;;;;;;15.00;8.03;;;;;;;-0.57;100.00;93532.34;5002529;28;20112;-74
2021/11/27 03:24:07;;;;;;;13.90;8.23;;;;;;;-0.62;100.00;93538.00;5024675;28;20516;-74
2021/11/27 03:26:33;;;;;;;13.93;8.77;;;;;;;-0.56;100.00;93528.81;5000531;28;20471;-73
2021/11/27 03:28:58;;;;;;;14.43;8.40;;;;;;;-0.58;100.00;93533.31;5018645;28;20447;-73
2021/11/27 03:31:24;;;;;;;13.53;7.93;;;;;;;-0.61;100.00;93524.13;5020844;28;20033;-73
2021/11/27 03:33:52;;;;;;;14.10;8.23;;;;;;;-0.66;100.00;93525.56;5028327;28;20033;-73
2021/11/27 03:36:18;;;;;;;13.10;7.30;;;;;;;-0.62;100.00;93526.88;5011245;28;20514;-73
2021/11/27 03:38:44;;;;;;;13.23;8.23;;;;;;;-0.60;100.00;93522.38;5002055;28;20475;-73
2021/11/27 03:41:13;;;;;;;13.37;8.77;;;;;;;-0.61;100.00;93533.63;5030278;28;20108;-74
2021/11/27 03:43:40;;;;;;;13.23;7.90;;;;;;;-0.59;100.00;93534.31;5020910;28;20550;-73
2021/11/27 03:46:07;;;;;;;14.00;8.10;;;;;;;-0.57;100.00;93534.94;5021073;28;20444;-74
2021/11/27 03:48:38;;;;;;;12.60;7.70;;;;;;;-0.58;100.00;93523.81;5020399;28;20507;-74
2021/11/27 03:51:21;;;;;;;11.37;6.90;;;;;;;-0.52;100.00;93528.34;5003282;28;20607;-73
2021/11/27 03:53:49;;;;;;;11.70;6.73;;;;;;;-0.55;100.00;93523.50;5010649;28;21067;-73
2021/11/27 03:56:19;;;;;;;10.87;6.60;;;;;;;-0.49;100.00;93532.38;5016828;28;20518;-73
2021/11/27 03:58:50;;;;;;;12.57;7.22;;;;;;;-0.48;100.00;93526.25;5017625;28;20475;-74
2021/11/27 04:01:18;;;;;;;11.73;6.87;;;;;;;-0.39;100.00;93527.06;5029740;28;20044;-73
2021/11/27 04:03:47;;;;;;;12.70;7.33;;;;;;;-0.39;100.00;93537.41;5023675;28;20824;-73
2021/11/27 04:06:15;;;;;;;9.63;6.07;;;;;;;-0.30;100.00;93526.94;5010481;28;20824;-73
2021/11/27 04:08:44;;;;;;;10.37;6.33;;;;;;;-0.29;100.00;93523.38;5009145;28;20464;-73
2021/11/27 04:11:11;;;;;;;9.97;6.23;;;;;;;-0.19;100.00;93518.06;5006888;28;21117;-74
2021/11/27 04:13:36;;;;;;;15.10;8.60;;;;;;;-0.20;100.00;93521.63;5011201;28;20964;-73
2021/11/27 04:16:05;;;;;;;14.40;10.00;;;;;;;-0.21;100.00;93525.16;5034568;28;20545;-74
2021/11/27 04:18:31;;;;;;;14.90;9.00;;;;;;;-0.17;100.00;93525.63;5031915;28;20855;-73
2021/11/27 04:20:58;;;;;;;20.30;11.53;;;;;;;-0.17;100.00;93523.03;5025242;28;20139;-74
2021/11/27 04:23:25;;;;;;;12.93;7.03;;;;;;;-0.17;100.00;93528.22;5026432;28;20449;-73
2021/11/27 04:25:53;;;;;;;10.97;6.33;;;;;;;-0.14;100.00;93520.16;5044384;28;20463;-73
2021/11/27 04:28:19;;;;;;;14.57;6.70;;;;;;;-0.12;100.00;93520.81;5015412;28;20518;-73
2021/11/27 04:30:46;;;;;;;15.97;7.77;;;;;;;-0.07;100.00;93516.78;5033542;28;20460;-73
2021/11/27 04:33:13;;;;;;;13.40;7.17;;;;;;;0.04;100.00;93520.81;5011657;28;20444;-73
2021/11/27 04:35:48;;;;;;;9.20;4.90;;;;;;;0.08;100.00;93524.69;5029417;28;20549;-74
2021/11/27 04:38:17;;;;;;;9.17;5.30;;;;;;;0.11;100.00;93508.84;5026415;28;21060;-73
2021/11/27 04:40:44;;;;;;;8.47;4.97;;;;;;;0.10;100.00;93507.25;5016975;28;20458;-73
2021/11/27 04:43:14;;;;;;;8.67;5.03;;;;;;;0.11;100.00;93514.03;5022858;28;20478;-73
2021/11/27 04:45:40;;;;;;;9.80;5.83;;;;;;;0.14;100.00;93515.47;5016764;28;20603;-73
2021/11/27 04:48:06;;;;;;;9.40;5.00;;;;;;;0.16;100.00;93516.91;5033890;28;20451;-73
2021/11/27 04:50:33;;;;;;;8.70;4.40;;;;;;;0.20;100.00;93517.38;5009578;28;20447;-73
2021/11/27 04:53:06;;;;;;;;;;;;;;;0.15;100.00;93525.63;5019021;28;20052;-73
2021/11/27 04:55:33;;;;;;;8.73;4.40;;;;;;;0.17;100.00;93528.88;5027452;28;19923;-73
2021/11/27 04:58:03;;;;;;;9.53;5.30;;;;;;;0.13;100.00;93522.41;5023073;28;20557;-73
2021/11/27 05:00:36;;;;;;;11.63;5.50;;;;;;;0.11;100.00;93523.56;5019912;28;20615;-73
2021/11/27 05:03:03;;;;;;;14.43;6.03;;;;;;;0.13;100.00;93517.22;5015034;28;20040;-73
2021/11/27 05:05:29;;;;;;;8.80;4.60;;;;;;;0.18;100.00;93519.34;5013150;28;20440;-73
2021/11/27 05:07:56;;;;;;;10.30;5.57;;;;;;;0.15;100.00;93525.63;5021340;28;20459;-73
2021/11/27 05:10:22;;;;;;;10.47;5.23;;;;;;;0.14;100.00;93518.88;5022044;28;20551;-73
2021/11/27 05:12:48;;;;;;;11.53;5.57;;;;;;;0.16;100.00;93527.25;5033408;28;20579;-73
2021/11/27 05:15:15;;;;;;;9.60;5.17;;;;;;;0.19;100.00;93521.75;5012804;28;20547;-74
2021/11/27 05:17:43;;;;;;;10.57;5.10;;;;;;;0.21;100.00;93519.81;5016383;28;20515;-73
2021/11/27 05:20:23;;;;;;;8.67;4.57;;;;;;;0.26;100.00;93524.50;5013058;28;21025;-73
2021/11/27 05:22:49;;;;;;;9.13;4.77;;;;;;;0.21;100.00;93525.00;5003457;28;20468;-73
2021/11/27 05:25:15;;;;;;;9.50;4.77;;;;;;;0.19;100.00;93521.75;5015520;28;20451;-73
2021/11/27 05:27:59;;;;;;;10.00;5.00;;;;;;;0.17;100.00;93528.88;5028237;28;20053;-73
2021/11/27 05:30:39;;;;;;;9.93;5.00;;;;;;;0.18;100.00;93530.47;5028542;28;20463;-73
2021/11/27 05:35:51;;;;;;;8.43;4.40;;;;;;;0.21;100.00;93529.34;5022903;28;20472;-73
2021/11/27 05:38:16;;;;;;;9.70;4.97;;;;;;;0.16;100.00;93531.59;5028669;28;20443;-73
2021/11/27 05:40:42;;;;;;;10.60;4.87;;;;;;;0.18;100.00;93533.06;5013510;28;20457;-73
2021/11/27 05:43:08;;;;;;;8.50;5.40;;;;;;;0.12;100.00;93527.75;5028709;28;20033;-73
2021/11/27 05:45:35;;;;;;;9.20;6.00;;;;;;;0.11;100.00;93542.44;5018174;28;20829;-73
2021/11/27 05:48:03;;;;;;;10.20;4.60;;;;;;;0.13;100.00;93534.50;5032670;28;20494;-73
2021/11/27 05:50:49;;;;;;;7.60;4.53;;;;;;;0.07;100.00;93543.75;5027277;28;20461;-73
2021/11/27 05:53:18;;;;;;;9.87;4.90;;;;;;;0.07;100.00;93543.75;5036900;28;20471;-74
2021/11/27 05:55:46;;;;;;;9.67;5.13;;;;;;;0.17;100.00;93549.56;5029301;28;20064;-73
2021/11/27 05:58:12;;;;;;;11.10;4.87;;;;;;;0.12;100.00;93556.16;5038702;28;20465;-73
2021/11/27 06:00:38;;;;;;;9.83;5.53;;;;;;;0.10;100.00;93548.59;5035064;28;20443;-73
2021/11/27 06:03:03;;;;;;;10.80;5.30;;;;;;;0.06;100.00;93552.44;5027965;28;20469;-73
2021/11/27 06:05:29;;;;;;;10.43;5.20;;;;;;;0.05;100.00;93550.84;5019820;28;20029;-73
2021/11/27 06:07:56;;;;;;;10.37;5.63;;;;;;;0.02;100.00;93555.53;5019572;28;20532;-73
2021/11/27 06:10:24;;;;;;;8.63;4.90;;;;;;;-0.01;100.00;93551.47;5035391;28;20061;-73
2021/11/27 06:12:50;;;;;;;11.03;6.00;;;;;;;0.00;100.00;93550.53;5028941;28;20499;-73
2021/11/27 06:15:16;;;;;;;10.17;5.70;;;;;;;-0.03;100.00;93559.41;5015410;28;20445;-73
2021/11/27 06:17:41;;;;;;;10.53;5.93;;;;;;;0.00;100.00;93553.13;5023721;28;20064;-73
2021/11/27 06:20:08;;;;;;;12.47;6.63;;;;;;;0.04;100.00;93561.34;5039008;28;20028;-73
2021/11/27 06:22:33;;;;;;;11.23;6.07;;;;;;;0.08;100.00;93563.44;5025084;28;20041;-73
2021/11/27 06:25:00;;;;;;;12.53;7.03;;;;;;;0.05;100.00;93558.59;5022333;28;20793;-73
2021/11/27 06:27:26;;;;;;;9.93;5.47;;;;;;;0.05;100.00;93562.94;4999622;28;20113;-73
2021/11/27 06:29:52;;;;;;;11.50;5.43;;;;;;;0.08;100.00;93568.59;5031820;28;21056;-74
2021/11/27 06:32:22;;;;;;;10.43;5.80;;;;;;;0.04;100.00;93575.06;5019131;28;20036;-73
2021/11/27 06:34:53;;;;;;;13.37;7.30;;;;;;;0.01;100.00;93569.41;5022441;28;20080;-74
2021/11/27 06:37:20;;;;;;;11.23;6.77;;;;;;;0.03;100.00;93582.97;5033485;28;21015;-74
2021/11/27 06:39:47;;;;;;;11.70;6.43;;;;;;;-0.02;100.00;93588.63;5032910;28;20467;-73
2021/11/27 06:42:14;;;;;;;10.93;5.97;;;;;;;-0.04;100.00;93587.97;5032088;28;20435;-73
2021/11/27 06:44:53;;;;;;;14.57;7.97;;;;;;;-0.04;100.00;93593.13;5018991;28;20495;-73
2021/11/27 06:47:22;;;;;;;13.30;7.90;;;;;;;-0.08;100.00;93582.31;5034625;28;20507;-73
2021/11/27 06:49:49;;;;;;;10.37;6.10;;;;;;;-0.05;100.00;93582.00;5015993;28;20478;-74
2021/11/27 06:52:16;;;;;;;12.47;6.53;;;;;;;-0.09;100.00;93593.63;5031689;28;20495;-73
2021/11/27 06:54:42;;;;;;;11.73;6.20;;;;;;;-0.14;100.00;93588.09;5005646;28;20461;-74
2021/11/27 06:57:08;;;;;;;27.73;13.40;;;;;;;-0.24;100.00;93587.44;5007270;28;20443;-74
2021/11/27 06:59:36;;;;;;;18.27;10.03;;;;;;;-0.13;100.00;93594.09;5046907;28;20013;-73
2021/11/27 07:02:21;;;;;;;26.63;15.00;;;;;;;-0.32;100.00;93598.56;5036086;28;20504;-73
2021/11/27 07:05:19;;;;;;;12.53;7.40;;;;;;;-0.28;100.00;93611.97;5023830;28;20455;-73
2021/11/27 07:07:52;;;;;;;14.20;8.10;;;;;;;-0.24;100.00;93621.81;5019934;28;20465;-73
2021/11/27 07:10:43;;;;;;;16.07;9.17;;;;;;;-0.18;100.00;93617.00;5021507;28;20921;-73
2021/11/27 07:13:22;;;;;;;17.30;8.93;;;;;;;-0.25;100.00;93627.97;5009578;28;20482;-74
2021/11/27 07:15:51;;;;;;;17.33;7.87;;;;;;;-0.26;100.00;93626.34;5020999;28;20474;-73
2021/11/27 07:18:17;;;;;;;12.63;8.00;;;;;;;-0.20;100.00;93629.25;5025947;28;20883;-73
2021/11/27 07:20:43;;;;;;;11.70;6.90;;;;;;;-0.25;100.00;93629.75;5026337;28;20041;-73
2021/11/27 07:23:09;;;;;;;12.83;7.47;;;;;;;-0.33;100.00;93633.13;5024676;28;20508;-73
2021/11/27 07:25:37;;;;;;;13.50;8.23;;;;;;;-0.27;100.00;93640.25;5005071;28;20551;-73
2021/11/27 07:28:23;;;;;;;10.57;6.77;;;;;;;-0.23;100.00;93630.41;5031270;28;20109;-72
2021/11/27 07:30:49;;;;;;;12.77;7.30;;;;;;;-0.16;100.00;93635.75;5014940;28;20529;-73
2021/11/27 07:33:15;;;;;;;12.50;6.93;;;;;;;-0.14;100.00;93637.19;5027374;28;20587;-73
2021/11/27 07:35:42;;;;;;;11.73;7.00;;;;;;;-0.11;100.00;93638.66;5016314;28;20492;-73
2021/11/27 07:38:07;;;;;;;15.57;7.40;;;;;;;-0.07;100.00;93637.34;5015597;28;20548;-73
2021/11/27 07:40:33;;;;;;;11.70;7.27;;;;;;;0.08;100.00;93646.13;5019598;28;20547;-75
2021/11/27 07:43:01;;;;;;;12.60;7.43;;;;;;;0.18;100.00;93639.03;5024825;28;20024;-73
2021/11/27 07:45:34;;;;;;;12.97;7.07;;;;;;;0.42;100.00;93642.59;5016655;28;20436;-74
2021/11/27 07:48:19;;;;;;;15.00;6.67;;;;;;;0.57;100.00;93632.41;5022285;28;20460;-73
2021/11/27 07:51:06;;;;;;;12.03;6.93;;;;;;;0.54;100.00;93635.31;5021376;28;20435;-73
2021/11/27 07:53:43;;;;;;;16.13;8.60;;;;;;;0.56;100.00;93636.78;5015924;28;20502;-74
2021/11/27 07:56:10;;;;;;;12.43;7.43;;;;;;;0.59;100.00;93639.03;5019563;28;20511;-73
2021/11/27 07:58:37;;;;;;;10.67;6.13;;;;;;;0.64;100.00;93639.38;5027070;28;20568;-74
2021/11/27 08:01:03;;;;;;;11.50;6.07;;;;;;;0.75;100.00;93629.66;5019663;28;20436;-73
2021/11/27 08:03:30;;;;;;;10.80;5.67;;;;;;;0.89;100.00;93637.56;5019934;28;20559;-73
2021/11/27 08:05:56;;;;;;;12.27;6.60;;;;;;;1.22;100.00;93636.69;5024849;28;20789;-73
2021/11/27 08:08:21;;;;;;;11.23;7.10;;;;;;;1.37;100.00;93645.38;5005000;28;20452;-74
2021/11/27 08:10:47;;;;;;;12.90;7.47;;;;;;;1.42;100.00;93649.06;5023958;28;20160;-74
2021/11/27 08:13:14;;;;;;;11.10;6.80;;;;;;;1.71;100.00;93646.84;5021588;28;20111;-74
2021/11/27 08:15:40;;;;;;;13.97;7.40;;;;;;;1.73;100.00;93644.91;5025157;28;20033;-73
2021/11/27 08:18:05;;;;;;;20.30;8.53;;;;;;;1.67;100.00;93648.19;5006969;28;20813;-74
2021/11/27 08:20:32;;;;;;;19.20;9.20;;;;;;;1.73;100.00;93650.09;5017284;28;20088;-73
2021/11/27 08:22:57;;;;;;;22.27;9.13;;;;;;;2.34;100.00;93653.63;5029045;28;20502;-74
2021/11/27 08:25:23;;;;;;;15.97;7.67;;;;;;;2.77;100.00;93659.16;5027795;28;20505;-73
2021/11/27 08:27:49;;;;;;;13.87;6.53;;;;;;;2.49;100.00;93651.94;5033956;28;20167;-73
2021/11/27 08:30:15;;;;;;;15.33;6.90;;;;;;;2.39;100.00;93663.50;5017258;28;20116;-73
2021/11/27 08:32:41;;;;;;;11.77;5.90;;;;;;;2.01;100.00;93661.63;5024938;28;20076;-73
2021/11/27 08:35:08;;;;;;;10.47;5.40;;;;;;;1.89;100.00;93670.75;5015366;28;20065;-74
2021/11/27 08:37:34;;;;;;;9.83;5.60;;;;;;;1.93;100.00;93672.03;5004905;28;20030;-74
2021/11/27 08:40:02;;;;;;;13.03;7.07;;;;;;;1.89;100.00;93675.94;5031493;28;20033;-74
2021/11/27 08:42:31;;;;;;;16.50;8.30;;;;;;;2.03;100.00;93677.81;5021165;28;20025;-73
2021/11/27 08:44:57;;;;;;;14.57;7.50;;;;;;;2.10;100.00;93677.94;5027312;28;20045;-76
2021/11/27 08:47:23;;;;;;;10.00;5.53;;;;;;;2.12;100.00;93686.34;5021496;28;20315;-75
2021/11/27 08:49:50;;;;;;;9.40;4.57;;;;;;;2.23;100.00;93688.56;5023210;28;20091;-75
2021/11/27 08:52:16;;;;;;;8.13;4.57;;;;;;;2.30;100.00;93691.28;5027794;28;20030;-75
2021/11/27 08:54:41;;;;;;;13.07;7.57;;;;;;;2.44;100.00;93693.13;5030950;28;20037;-75
2021/11/27 08:57:07;;;;;;;10.43;6.73;;;;;;;2.41;100.00;93696.06;5008499;28;20087;-75
2021/11/27 08:59:33;;;;;;;8.17;4.73;;;;;;;2.35;100.00;93699.38;5010544;28;20045;-76
2021/11/27 09:01:58;;;;;;;6.23;3.70;;;;;;;2.29;100.00;93703.44;5021001;28;20026;-75
2021/11/27 09:04:27;;;;;;;7.47;4.00;;;;;;;2.24;100.00;93703.13;5022658;28;20037;-77
2021/11/27 09:06:53;;;;;;;8.63;4.27;;;;;;;2.30;100.00;93704.25;5027625;28;20030;-76
2021/11/27 09:09:20;;;;;;;7.40;3.53;;;;;;;2.18;100.00;93706.44;5027750;28;20078;-75
2021/11/27 09:11:46;;;;;;;7.50;4.03;;;;;;;2.18;100.00;93706.44;5026803;28;20549;-75
2021/11/27 09:14:13;;;;;;;7.90;4.10;;;;;;;2.19;100.00;93708.03;5026371;28;20041;-74
2021/11/27 09:16:39;;;;;;;7.87;4.23;;;;;;;2.22;100.00;93709.47;5026141;28;20029;-75
2021/11/27 09:19:05;;;;;;;11.50;5.93;;;;;;;2.24;100.00;93715.28;5013290;28;20033;-75
2021/11/27 09:21:33;;;;;;;7.80;4.33;;;;;;;2.24;100.00;93715.28;5037284;28;20626;-75
2021/11/27 09:23:59;;;;;;;8.43;3.90;;;;;;;2.23;100.00;93722.25;5020432;28;20552;-75
2021/11/27 09:26:25;;;;;;;7.67;3.73;;;;;;;2.27;100.00;93728.72;5028771;28;20032;-74
2021/11/27 09:28:51;;;;;;;7.03;3.60;;;;;;;2.37;100.00;93725.91;5030414;28;20033;-75
2021/11/27 09:31:17;;;;;;;6.33;3.43;;;;;;;2.58;100.00;93723.53;5035652;28;20860;-74
2021/11/27 09:33:43;;;;;;;7.07;4.17;;;;;;;2.86;100.00;93723.00;5023148;28;20041;-74
2021/11/27 09:36:11;;;;;;;7.20;3.73;;;;;;;3.66;100.00;93721.66;5046443;28;20022;-74
2021/11/27 09:38:38;;;;;;;7.23;3.70;;;;;;;4.27;100.00;93722.22;5021480;28;20040;-74
2021/11/27 09:41:20;;;;;;;9.03;4.50;;;;;;;4.53;100.00;93721.72;5004265;28;20406;-75
2021/11/27 09:43:49;;;;;;;8.37;4.43;;;;;;;4.52;100.00;93711.50;5016889;28;20491;-74
2021/11/27 09:46:18;;;;;;;6.10;3.00;;;;;;;5.13;97.90;93720.50;5030291;28;20033;-74
2021/11/27 09:48:48;;;;;;;5.57;3.23;;;;;;;5.54;94.67;93712.00;5012862;28;20049;-74
2021/11/27 09:51:15;;;;;;;5.37;2.67;;;;;;;5.25;96.21;93715.59;5024534;28;20100;-74
2021/11/27 09:53:42;;;;;;;8.20;3.33;;;;;;;5.96;91.84;93719.91;5017926;28;20246;-74
2021/11/27 09:56:08;;;;;;;4.07;2.07;;;;;;;5.57;90.30;93708.22;5007222;28;20080;-74
2021/11/27 09:58:35;;;;;;;5.60;2.67;;;;;;;4.85;93.25;93707.41;5028824;28;20552;-75
2021/11/27 10:01:03;;;;;;;5.00;2.57;;;;;;;5.06;92.66;93724.03;5028640;28;20035;-75
2021/11/27 10:03:31;;;;;;;5.17;2.27;;;;;;;5.26;94.56;93719.78;5019783;28;20499;-73
2021/11/27 10:05:57;;;;;;;5.10;2.87;;;;;;;5.72;93.72;93715.91;5018608;28;20431;-75
2021/11/27 10:08:23;;;;;;;5.67;2.63;;;;;;;5.59;92.08;93708.81;5007081;28;20045;-75
2021/11/27 10:10:50;;;;;;;4.57;2.30;;;;;;;5.39;95.22;93714.69;5024212;28;20108;-74
2021/11/27 10:13:20;;;;;;;9.30;3.87;;;;;;;5.26;94.35;93714.59;5018827;28;20025;-73
2021/11/27 10:15:46;;;;;;;6.20;3.10;;;;;;;4.92;96.92;93702.28;5031418;28;20033;-75
2021/11/27 10:18:17;;;;;;;5.63;2.63;;;;;;;5.30;94.12;93692.38;5028911;28;20033;-74
2021/11/27 10:20:43;;;;;;;4.77;2.50;;;;;;;4.81;95.46;93700.19;5018503;28;20537;-74
2021/11/27 10:23:10;;;;;;;6.20;3.17;;;;;;;5.25;95.60;93706.97;5001745;28;20568;-74
2021/11/27 10:25:39;;;;;;;4.43;2.20;;;;;;;5.52;92.48;93698.34;5023269;28;20037;-74
2021/11/27 10:28:15;;;;;;;4.80;2.30;;;;;;;5.43;92.11;93689.03;5011489;28;20029;-74
2021/11/27 10:30:46;;;;;;;5.83;2.30;;;;;;;4.99;94.84;93692.72;5013440;28;20061;-74
2021/11/27 10:33:14;;;;;;;3.33;1.80;;;;;;;4.83;96.04;93685.16;5028340;28;20033;-74
2021/11/27 10:36:13;;;;;;;4.17;1.67;;;;;;;4.84;96.68;93695.41;5028237;28;20430;-74
2021/11/27 10:38:45;;;;;;;6.97;2.50;;;;;;;4.49;96.10;93703.09;5020294;28;20053;-74
2021/11/27 10:41:15;;;;;;;11.90;6.00;;;;;;;4.61;96.35;93697.38;5026588;28;20481;-76
2021/11/27 10:44:05;;;;;;;6.17;3.53;;;;;;;4.52;96.09;93688.06;5019014;28;20045;-75
2021/11/27 10:46:34;;;;;;;4.93;2.00;;;;;;;4.76;93.99;93690.31;5012098;28;20041;-76
2021/11/27 10:49:04;;;;;;;6.27;3.10;;;;;;;5.38;93.28;93686.22;5027809;28;20410;-76
2021/11/27 10:51:31;;;;;;;6.23;3.10;;;;;;;5.41;93.53;93680.63;5003405;28;20096;-76
2021/11/27 10:54:01;;;;;;;6.07;2.90;;;;;;;5.19;93.26;93685.88;5024127;28;20026;-76
2021/11/27 10:56:43;;;;;;;6.30;2.90;;;;;;;5.80;90.41;93680.06;5006284;28;20048;-76
2021/11/27 10:59:10;;;;;;;6.60;3.30;;;;;;;5.60;91.73;93679.97;5002394;28;20137;-76
2021/11/27 11:02:05;;;;;;;6.90;3.03;;;;;;;5.90;91.32;93679.69;5007501;28;20044;-76
2021/11/27 11:04:32;;;;;;;6.23;2.83;;;;;;;6.00;89.39;93689.81;5028397;28;20124;-77
2021/11/27 11:07:13;;;;;;;6.30;3.33;;;;;;;5.46;91.05;93686.06;5025129;28;20030;-77
2021/11/27 11:09:59;;;;;;;7.77;3.50;;;;;;;5.00;93.22;93690.91;5013951;28;20101;-77
2021/11/27 11:12:37;;;;;;;7.40;3.07;;;;;;;4.68;95.59;93686.03;5032697;28;20128;-76
2021/11/27 11:15:22;;;;;;;7.40;3.10;;;;;;;4.45;97.47;93698.41;5018981;28;20466;-76
2021/11/27 11:17:51;;;;;;;5.73;2.93;;;;;;;4.20;99.01;93708.34;5014330;28;20091;-76
2021/11/27 11:20:45;;;;;;;6.17;2.60;;;;;;;4.03;99.87;93710.34;5042845;28;20025;-77
2021/11/27 11:23:25;;;;;;;8.00;2.83;;;;;;;3.92;100.00;93711.63;5004482;28;20415;-77
2021/11/27 11:26:12;;;;;;;9.53;3.77;;;;;;;3.82;100.00;93726.66;5008833;28;20052;-77
2021/11/27 11:28:40;;;;;;;7.07;3.57;;;;;;;3.78;100.00;93744.41;5027169;28;20064;-77
2021/11/27 11:31:09;;;;;;;8.77;3.77;;;;;;;3.79;100.00;93734.84;5017722;28;20033;-78
2021/11/27 11:33:39;;;;;;;9.90;3.83;;;;;;;3.82;100.00;93736.25;5015241;28;20032;-77